sensor_id;sensor_type;location;lat;lon;timestamp;P1;durP1;ratioP1;P2;durP2;ratioP2
44428;SDS011;30134;47.866;-4.222;2022-11-15T00:00:51;24.05;;;15.50;;
44428;SDS011;30134;47.866;-4.222;2022-11-15T00:03:18;44.78;;;30.65;;
44428;SDS011;30134;47.866;-4.222;2022-11-15T00:05:49;42.80;;;29.20;;
44428;SDS011;30134;47.866;-4.222;2022-11-15T00:08:16;48.97;;;30.35;;
44428;SDS011;30134;47.866;-4.222;2022-11-15T00:10:42;49.80;;;31.92;;
44428;SDS011;30134;47.866;-4.222;2022-11-15T00:13:18;45.30;;;30.67;;
44428;SDS011;30134;47.866;-4.222;2022-11-15T00:15:44;44.50;;;29.20;;
44428;SDS011;30134;47.866;-4.222;2022-11-15T00:18:11;41.10;;;28.08;;
44428;SDS011;30134;47.866;-4.222;2022-11-15T00:20:39;42.05;;;29.15;;
44428;SDS011;30134;47.866;-4.222;2022-11-15T00:23:05;39.60;;;27.63;;
44428;SDS011;30134;47.866;-4.222;2022-11-15T00:25:31;36.55;;;25.60;;
44428;SDS011;30134;47.866;-4.222;2022-11-15T00:27:58;35.90;;;25.25;;
44428;SDS011;30134;47.866;-4.222;2022-11-15T00:30:25;34.08;;;23.63;;
44428;SDS011;30134;47.866;-4.222;2022-11-15T00:32:53;33.25;;;22.83;;
44428;SDS011;30134;47.866;-4.222;2022-11-15T00:35:19;28.50;;;20.63;;
44428;SDS011;30134;47.866;-4.222;2022-11-15T00:37:46;30.10;;;20.02;;
44428;SDS011;30134;47.866;-4.222;2022-11-15T00:40:13;28.00;;;19.58;;
44428;SDS011;30134;47.866;-4.222;2022-11-15T00:42:39;26.60;;;17.98;;
44428;SDS011;30134;47.866;-4.222;2022-11-15T00:45:06;24.80;;;17.73;;
44428;SDS011;30134;47.866;-4.222;2022-11-15T00:47:33;24.67;;;16.40;;
44428;SDS011;30134;47.866;-4.222;2022-11-15T00:49:58;23.92;;;16.42;;
44428;SDS011;30134;47.866;-4.222;2022-11-15T00:52:26;24.88;;;16.00;;
44428;SDS011;30134;47.866;-4.222;2022-11-15T00:54:51;23.48;;;15.05;;
44428;SDS011;30134;47.866;-4.222;2022-11-15T00:57:17;21.83;;;14.18;;
44428;SDS011;30134;47.866;-4.222;2022-11-15T00:59:43;20.88;;;14.48;;
44428;SDS011;30134;47.866;-4.222;2022-11-15T01:02:09;21.33;;;13.80;;
44428;SDS011;30134;47.866;-4.222;2022-11-15T01:04:35;19.85;;;13.40;;
44428;SDS011;30134;47.866;-4.222;2022-11-15T01:58:58;9.90;;;6.20;;
44428;SDS011;30134;47.866;-4.222;2022-11-15T02:33:15;6.57;;;4.30;;
44428;SDS011;30134;47.866;-4.222;2022-11-15T02:36:13;7.05;;;4.30;;
44428;SDS011;30134;47.866;-4.222;2022-11-15T02:39:10;8.25;;;4.57;;
44428;SDS011;30134;47.866;-4.222;2022-11-15T02:41:55;6.40;;;3.83;;
44428;SDS011;30134;47.866;-4.222;2022-11-15T02:44:33;7.00;;;3.80;;
44428;SDS011;30134;47.866;-4.222;2022-11-15T02:52:16;7.03;;;4.13;;
44428;SDS011;30134;47.866;-4.222;2022-11-15T02:54:54;8.20;;;4.25;;
44428;SDS011;30134;47.866;-4.222;2022-11-15T02:57:51;6.72;;;3.42;;
44428;SDS011;30134;47.866;-4.222;2022-11-15T03:00:20;4.68;;;3.20;;
44428;SDS011;30134;47.866;-4.222;2022-11-15T03:12:11;5.18;;;3.45;;
44428;SDS011;30134;47.866;-4.222;2022-11-15T03:17:45;5.72;;;2.85;;
44428;SDS011;30134;47.866;-4.222;2022-11-15T03:20:20;6.60;;;3.40;;
44428;SDS011;30134;47.866;-4.222;2022-11-15T03:22:46;5.60;;;3.10;;
44428;SDS011;30134;47.866;-4.222;2022-11-15T03:25:19;6.05;;;3.25;;
44428;SDS011;30134;47.866;-4.222;2022-11-15T03:27:50;3.95;;;2.72;;
44428;SDS011;30134;47.866;-4.222;2022-11-15T03:30:20;6.20;;;2.75;;
44428;SDS011;30134;47.866;-4.222;2022-11-15T03:32:53;5.05;;;3.03;;
44428;SDS011;30134;47.866;-4.222;2022-11-15T03:35:27;5.80;;;3.13;;
44428;SDS011;30134;47.866;-4.222;2022-11-15T03:40:54;4.22;;;2.53;;
44428;SDS011;30134;47.866;-4.222;2022-11-15T03:46:36;4.30;;;2.67;;
44428;SDS011;30134;47.866;-4.222;2022-11-15T03:49:11;4.90;;;2.90;;
44428;SDS011;30134;47.866;-4.222;2022-11-15T03:51:56;5.85;;;2.78;;
44428;SDS011;30134;47.866;-4.222;2022-11-15T03:54:23;4.10;;;2.50;;
44428;SDS011;30134;47.866;-4.222;2022-11-15T03:56:49;5.20;;;2.67;;
44428;SDS011;30134;47.866;-4.222;2022-11-15T03:59:15;4.85;;;2.70;;
44428;SDS011;30134;47.866;-4.222;2022-11-15T04:01:41;4.28;;;2.80;;
44428;SDS011;30134;47.866;-4.222;2022-11-15T04:04:07;5.47;;;2.83;;
44428;SDS011;30134;47.866;-4.222;2022-11-15T04:06:33;4.53;;;2.83;;
44428;SDS011;30134;47.866;-4.222;2022-11-15T04:08:59;3.65;;;2.35;;
44428;SDS011;30134;47.866;-4.222;2022-11-15T04:11:25;5.53;;;2.60;;
44428;SDS011;30134;47.866;-4.222;2022-11-15T04:13:51;4.05;;;2.33;;
44428;SDS011;30134;47.866;-4.222;2022-11-15T04:16:17;4.47;;;2.17;;
44428;SDS011;30134;47.866;-4.222;2022-11-15T04:18:43;3.17;;;2.13;;
44428;SDS011;30134;47.866;-4.222;2022-11-15T04:21:09;4.35;;;2.40;;
44428;SDS011;30134;47.866;-4.222;2022-11-15T04:23:53;4.22;;;1.98;;
44428;SDS011;30134;47.866;-4.222;2022-11-15T04:26:20;3.90;;;2.30;;
44428;SDS011;30134;47.866;-4.222;2022-11-15T04:28:48;5.22;;;2.47;;
44428;SDS011;30134;47.866;-4.222;2022-11-15T04:31:32;4.93;;;2.55;;
44428;SDS011;30134;47.866;-4.222;2022-11-15T04:34:00;5.00;;;2.58;;
44428;SDS011;30134;47.866;-4.222;2022-11-15T04:36:26;4.70;;;2.70;;
44428;SDS011;30134;47.866;-4.222;2022-11-15T04:39:11;5.32;;;2.60;;
44428;SDS011;30134;47.866;-4.222;2022-11-15T04:41:37;5.90;;;3.10;;
44428;SDS011;30134;47.866;-4.222;2022-11-15T04:44:02;4.82;;;2.22;;
44428;SDS011;30134;47.866;-4.222;2022-11-15T04:46:28;5.45;;;2.53;;
44428;SDS011;30134;47.866;-4.222;2022-11-15T04:48:56;3.47;;;2.00;;
44428;SDS011;30134;47.866;-4.222;2022-11-15T04:51:22;4.88;;;2.28;;
44428;SDS011;30134;47.866;-4.222;2022-11-15T04:53:48;4.57;;;2.20;;
44428;SDS011;30134;47.866;-4.222;2022-11-15T04:56:14;4.57;;;2.40;;
44428;SDS011;30134;47.866;-4.222;2022-11-15T04:58:40;4.28;;;2.03;;
44428;SDS011;30134;47.866;-4.222;2022-11-15T05:01:10;4.40;;;2.13;;
44428;SDS011;30134;47.866;-4.222;2022-11-15T05:03:42;4.28;;;2.38;;
44428;SDS011;30134;47.866;-4.222;2022-11-15T05:06:27;3.83;;;2.08;;
44428;SDS011;30134;47.866;-4.222;2022-11-15T05:08:53;4.00;;;1.90;;
44428;SDS011;30134;47.866;-4.222;2022-11-15T05:11:21;4.43;;;2.20;;
44428;SDS011;30134;47.866;-4.222;2022-11-15T05:13:48;2.75;;;1.65;;
44428;SDS011;30134;47.866;-4.222;2022-11-15T05:16:14;5.00;;;2.42;;
44428;SDS011;30134;47.866;-4.222;2022-11-15T05:18:41;3.60;;;2.15;;
44428;SDS011;30134;47.866;-4.222;2022-11-15T05:21:08;5.03;;;2.38;;
44428;SDS011;30134;47.866;-4.222;2022-11-15T05:23:40;2.92;;;1.75;;
44428;SDS011;30134;47.866;-4.222;2022-11-15T05:26:06;3.72;;;2.20;;
44428;SDS011;30134;47.866;-4.222;2022-11-15T05:28:34;3.33;;;2.03;;
44428;SDS011;30134;47.866;-4.222;2022-11-15T05:31:05;4.57;;;2.20;;
44428;SDS011;30134;47.866;-4.222;2022-11-15T05:33:38;3.95;;;2.25;;
44428;SDS011;30134;47.866;-4.222;2022-11-15T05:39:06;3.70;;;2.00;;
44428;SDS011;30134;47.866;-4.222;2022-11-15T05:41:40;3.10;;;1.60;;
44428;SDS011;30134;47.866;-4.222;2022-11-15T05:44:12;4.03;;;2.15;;
44428;SDS011;30134;47.866;-4.222;2022-11-15T05:46:42;3.55;;;1.98;;
44428;SDS011;30134;47.866;-4.222;2022-11-15T05:49:10;4.38;;;2.00;;
44428;SDS011;30134;47.866;-4.222;2022-11-15T05:51:43;4.10;;;2.00;;
44428;SDS011;30134;47.866;-4.222;2022-11-15T05:54:11;3.58;;;1.83;;
44428;SDS011;30134;47.866;-4.222;2022-11-15T05:56:37;3.72;;;2.03;;
44428;SDS011;30134;47.866;-4.222;2022-11-15T05:59:03;3.55;;;2.05;;
44428;SDS011;30134;47.866;-4.222;2022-11-15T06:01:30;4.20;;;1.75;;
44428;SDS011;30134;47.866;-4.222;2022-11-15T06:03:56;3.42;;;1.90;;
44428;SDS011;30134;47.866;-4.222;2022-11-15T06:06:22;3.03;;;1.80;;
44428;SDS011;30134;47.866;-4.222;2022-11-15T06:08:48;3.17;;;1.95;;
44428;SDS011;30134;47.866;-4.222;2022-11-15T06:11:13;4.60;;;2.10;;
44428;SDS011;30134;47.866;-4.222;2022-11-15T06:13:39;4.50;;;1.90;;
44428;SDS011;30134;47.866;-4.222;2022-11-15T06:16:05;4.28;;;1.77;;
44428;SDS011;30134;47.866;-4.222;2022-11-15T06:18:32;2.22;;;1.42;;
44428;SDS011;30134;47.866;-4.222;2022-11-15T06:20:59;4.43;;;1.65;;
44428;SDS011;30134;47.866;-4.222;2022-11-15T06:23:26;3.70;;;1.73;;
44428;SDS011;30134;47.866;-4.222;2022-11-15T06:25:53;4.50;;;1.98;;
44428;SDS011;30134;47.866;-4.222;2022-11-15T06:28:18;2.97;;;1.70;;
44428;SDS011;30134;47.866;-4.222;2022-11-15T06:30:45;3.38;;;1.98;;
44428;SDS011;30134;47.866;-4.222;2022-11-15T06:33:11;4.80;;;2.33;;
44428;SDS011;30134;47.866;-4.222;2022-11-15T06:35:37;3.40;;;1.98;;
44428;SDS011;30134;47.866;-4.222;2022-11-15T06:38:04;3.60;;;1.80;;
44428;SDS011;30134;47.866;-4.222;2022-11-15T06:40:33;3.15;;;1.90;;
44428;SDS011;30134;47.866;-4.222;2022-11-15T06:43:05;3.70;;;1.70;;
44428;SDS011;30134;47.866;-4.222;2022-11-15T06:45:31;3.00;;;1.75;;
44428;SDS011;30134;47.866;-4.222;2022-11-15T06:47:58;3.72;;;1.80;;
44428;SDS011;30134;47.866;-4.222;2022-11-15T06:50:24;4.15;;;2.13;;
44428;SDS011;30134;47.866;-4.222;2022-11-15T06:52:50;3.70;;;2.25;;
44428;SDS011;30134;47.866;-4.222;2022-11-15T06:55:16;3.13;;;1.75;;
44428;SDS011;30134;47.866;-4.222;2022-11-15T06:57:49;3.90;;;1.60;;
44428;SDS011;30134;47.866;-4.222;2022-11-15T07:00:17;2.97;;;1.63;;
44428;SDS011;30134;47.866;-4.222;2022-11-15T07:02:45;4.50;;;2.08;;
44428;SDS011;30134;47.866;-4.222;2022-11-15T07:05:15;3.05;;;1.50;;
44428;SDS011;30134;47.866;-4.222;2022-11-15T07:07:41;3.67;;;1.73;;
44428;SDS011;30134;47.866;-4.222;2022-11-15T07:10:08;3.40;;;1.73;;
44428;SDS011;30134;47.866;-4.222;2022-11-15T07:12:35;2.22;;;1.50;;
44428;SDS011;30134;47.866;-4.222;2022-11-15T07:15:01;3.10;;;1.83;;
44428;SDS011;30134;47.866;-4.222;2022-11-15T07:17:27;3.15;;;1.63;;
44428;SDS011;30134;47.866;-4.222;2022-11-15T07:19:53;2.15;;;1.25;;
44428;SDS011;30134;47.866;-4.222;2022-11-15T07:22:19;4.28;;;2.00;;
44428;SDS011;30134;47.866;-4.222;2022-11-15T07:24:45;3.58;;;1.70;;
44428;SDS011;30134;47.866;-4.222;2022-11-15T07:27:10;2.45;;;1.50;;
44428;SDS011;30134;47.866;-4.222;2022-11-15T07:29:36;4.13;;;1.85;;
44428;SDS011;30134;47.866;-4.222;2022-11-15T07:32:02;2.65;;;1.70;;
44428;SDS011;30134;47.866;-4.222;2022-11-15T07:34:28;3.28;;;1.60;;
44428;SDS011;30134;47.866;-4.222;2022-11-15T07:36:54;3.40;;;1.83;;
44428;SDS011;30134;47.866;-4.222;2022-11-15T07:39:20;2.60;;;1.38;;
44428;SDS011;30134;47.866;-4.222;2022-11-15T07:41:46;2.72;;;1.42;;
44428;SDS011;30134;47.866;-4.222;2022-11-15T07:44:13;4.18;;;1.63;;
44428;SDS011;30134;47.866;-4.222;2022-11-15T07:46:39;2.92;;;1.50;;
44428;SDS011;30134;47.866;-4.222;2022-11-15T07:49:07;4.25;;;1.70;;
44428;SDS011;30134;47.866;-4.222;2022-11-15T07:51:33;2.70;;;1.52;;
44428;SDS011;30134;47.866;-4.222;2022-11-15T07:53:58;4.00;;;1.70;;
44428;SDS011;30134;47.866;-4.222;2022-11-15T07:56:24;2.85;;;1.40;;
44428;SDS011;30134;47.866;-4.222;2022-11-15T07:58:50;2.65;;;1.50;;
44428;SDS011;30134;47.866;-4.222;2022-11-15T08:01:16;3.45;;;1.70;;
44428;SDS011;30134;47.866;-4.222;2022-11-15T08:03:42;2.45;;;1.60;;
44428;SDS011;30134;47.866;-4.222;2022-11-15T08:06:08;3.08;;;1.70;;
44428;SDS011;30134;47.866;-4.222;2022-11-15T08:08:34;3.83;;;1.58;;
44428;SDS011;30134;47.866;-4.222;2022-11-15T08:11:00;3.80;;;1.63;;
44428;SDS011;30134;47.866;-4.222;2022-11-15T08:13:26;3.70;;;1.70;;
44428;SDS011;30134;47.866;-4.222;2022-11-15T08:15:56;3.75;;;1.60;;
44428;SDS011;30134;47.866;-4.222;2022-11-15T08:18:29;3.15;;;1.48;;
44428;SDS011;30134;47.866;-4.222;2022-11-15T08:20:58;2.50;;;1.40;;
44428;SDS011;30134;47.866;-4.222;2022-11-15T08:23:26;6.60;;;2.57;;
44428;SDS011;30134;47.866;-4.222;2022-11-15T08:25:52;6.47;;;1.95;;
44428;SDS011;30134;47.866;-4.222;2022-11-15T08:28:24;18.67;;;3.08;;
44428;SDS011;30134;47.866;-4.222;2022-11-15T08:30:49;13.32;;;2.95;;
44428;SDS011;30134;47.866;-4.222;2022-11-15T08:33:16;12.38;;;2.53;;
44428;SDS011;30134;47.866;-4.222;2022-11-15T08:35:42;12.73;;;3.17;;
44428;SDS011;30134;47.866;-4.222;2022-11-15T08:38:09;19.20;;;2.90;;
44428;SDS011;30134;47.866;-4.222;2022-11-15T08:40:36;7.03;;;2.50;;
44428;SDS011;30134;47.866;-4.222;2022-11-15T08:43:02;9.13;;;2.40;;
44428;SDS011;30134;47.866;-4.222;2022-11-15T08:45:29;11.70;;;2.50;;
44428;SDS011;30134;47.866;-4.222;2022-11-15T08:47:56;9.15;;;3.00;;
44428;SDS011;30134;47.866;-4.222;2022-11-15T08:50:23;6.93;;;2.90;;
44428;SDS011;30134;47.866;-4.222;2022-11-15T08:52:51;7.13;;;2.80;;
44428;SDS011;30134;47.866;-4.222;2022-11-15T08:55:17;9.43;;;3.00;;
44428;SDS011;30134;47.866;-4.222;2022-11-15T08:57:43;10.07;;;3.25;;
44428;SDS011;30134;47.866;-4.222;2022-11-15T09:00:09;7.50;;;3.33;;
44428;SDS011;30134;47.866;-4.222;2022-11-15T09:02:40;6.22;;;2.90;;
44428;SDS011;30134;47.866;-4.222;2022-11-15T09:05:06;7.40;;;3.40;;
44428;SDS011;30134;47.866;-4.222;2022-11-15T09:07:33;8.15;;;3.47;;
44428;SDS011;30134;47.866;-4.222;2022-11-15T09:09:59;13.15;;;4.03;;
44428;SDS011;30134;47.866;-4.222;2022-11-15T09:12:25;7.80;;;3.03;;
44428;SDS011;30134;47.866;-4.222;2022-11-15T09:14:51;11.02;;;3.10;;
44428;SDS011;30134;47.866;-4.222;2022-11-15T09:17:17;9.13;;;3.20;;
44428;SDS011;30134;47.866;-4.222;2022-11-15T09:19:44;12.85;;;3.10;;
44428;SDS011;30134;47.866;-4.222;2022-11-15T09:34:19;10.57;;;4.20;;
44428;SDS011;30134;47.866;-4.222;2022-11-15T09:36:46;8.65;;;5.07;;
44428;SDS011;30134;47.866;-4.222;2022-11-15T09:39:12;10.93;;;6.05;;
44428;SDS011;30134;47.866;-4.222;2022-11-15T09:41:43;8.77;;;5.10;;
44428;SDS011;30134;47.866;-4.222;2022-11-15T10:14:14;5.82;;;3.25;;
44428;SDS011;30134;47.866;-4.222;2022-11-15T10:19:42;6.32;;;3.17;;
44428;SDS011;30134;47.866;-4.222;2022-11-15T10:22:47;5.82;;;2.92;;
44428;SDS011;30134;47.866;-4.222;2022-11-15T10:25:22;5.57;;;2.63;;
44428;SDS011;30134;47.866;-4.222;2022-11-15T10:28:36;4.55;;;2.35;;
44428;SDS011;30134;47.866;-4.222;2022-11-15T10:30:50;5.88;;;2.78;;
44428;SDS011;30134;47.866;-4.222;2022-11-15T10:33:32;5.72;;;2.47;;
44428;SDS011;30134;47.866;-4.222;2022-11-15T10:41:20;4.18;;;1.88;;
44428;SDS011;30134;47.866;-4.222;2022-11-15T10:46:45;5.20;;;1.95;;
44428;SDS011;30134;47.866;-4.222;2022-11-15T10:49:29;5.45;;;2.17;;
44428;SDS011;30134;47.866;-4.222;2022-11-15T10:52:02;4.68;;;1.48;;
44428;SDS011;30134;47.866;-4.222;2022-11-15T10:54:47;5.20;;;2.05;;
44428;SDS011;30134;47.866;-4.222;2022-11-15T10:57:17;3.58;;;1.67;;
44428;SDS011;30134;47.866;-4.222;2022-11-15T10:59:53;4.60;;;1.88;;
44428;SDS011;30134;47.866;-4.222;2022-11-15T11:02:41;2.92;;;1.70;;
44428;SDS011;30134;47.866;-4.222;2022-11-15T11:05:38;3.78;;;1.60;;
44428;SDS011;30134;47.866;-4.222;2022-11-15T11:13:23;4.65;;;2.05;;
44428;SDS011;30134;47.866;-4.222;2022-11-15T11:16:33;4.07;;;1.60;;
44428;SDS011;30134;47.866;-4.222;2022-11-15T11:18:40;3.53;;;1.50;;
44428;SDS011;30134;47.866;-4.222;2022-11-15T11:21:25;3.17;;;1.55;;
44428;SDS011;30134;47.866;-4.222;2022-11-15T11:27:17;3.47;;;1.50;;
44428;SDS011;30134;47.866;-4.222;2022-11-15T11:32:47;4.80;;;1.42;;
44428;SDS011;30134;47.866;-4.222;2022-11-15T11:35:39;3.92;;;1.50;;
44428;SDS011;30134;47.866;-4.222;2022-11-15T11:38:12;2.97;;;1.40;;
44428;SDS011;30134;47.866;-4.222;2022-11-15T11:47:51;3.35;;;1.60;;
44428;SDS011;30134;47.866;-4.222;2022-11-15T11:50:32;4.90;;;1.70;;
44428;SDS011;30134;47.866;-4.222;2022-11-15T11:56:16;5.22;;;1.60;;
44428;SDS011;30134;47.866;-4.222;2022-11-15T11:59:25;3.55;;;1.45;;
44428;SDS011;30134;47.866;-4.222;2022-11-15T12:02:21;5.38;;;1.45;;
44428;SDS011;30134;47.866;-4.222;2022-11-15T12:04:57;3.28;;;1.33;;
44428;SDS011;30134;47.866;-4.222;2022-11-15T12:07:43;3.10;;;1.48;;
44428;SDS011;30134;47.866;-4.222;2022-11-15T12:18:24;5.30;;;2.20;;
44428;SDS011;30134;47.866;-4.222;2022-11-15T12:20:52;6.07;;;2.10;;
44428;SDS011;30134;47.866;-4.222;2022-11-15T12:23:30;5.88;;;2.22;;
44428;SDS011;30134;47.866;-4.222;2022-11-15T12:26:09;4.13;;;1.65;;
44428;SDS011;30134;47.866;-4.222;2022-11-15T12:28:59;5.63;;;2.17;;
44428;SDS011;30134;47.866;-4.222;2022-11-15T12:34:00;5.65;;;2.13;;
44428;SDS011;30134;47.866;-4.222;2022-11-15T12:36:37;5.45;;;2.60;;
44428;SDS011;30134;47.866;-4.222;2022-11-15T12:39:08;5.03;;;2.25;;
44428;SDS011;30134;47.866;-4.222;2022-11-15T12:41:42;6.70;;;2.17;;
44428;SDS011;30134;47.866;-4.222;2022-11-15T13:02:42;5.15;;;2.10;;
44428;SDS011;30134;47.866;-4.222;2022-11-15T13:17:53;6.10;;;2.33;;
44428;SDS011;30134;47.866;-4.222;2022-11-15T13:20:31;5.63;;;2.08;;
44428;SDS011;30134;47.866;-4.222;2022-11-15T13:30:39;5.63;;;2.42;;
44428;SDS011;30134;47.866;-4.222;2022-11-15T13:38:53;3.65;;;1.80;;
44428;SDS011;30134;47.866;-4.222;2022-11-15T13:41:25;5.20;;;2.25;;
44428;SDS011;30134;47.866;-4.222;2022-11-15T13:43:55;5.40;;;2.15;;
44428;SDS011;30134;47.866;-4.222;2022-11-15T13:46:23;4.38;;;1.98;;
44428;SDS011;30134;47.866;-4.222;2022-11-15T13:49:04;5.28;;;2.08;;
44428;SDS011;30134;47.866;-4.222;2022-11-15T13:51:47;4.50;;;2.03;;
44428;SDS011;30134;47.866;-4.222;2022-11-15T13:54:43;2.92;;;1.40;;
44428;SDS011;30134;47.866;-4.222;2022-11-15T14:03:19;4.32;;;1.52;;
44428;SDS011;30134;47.866;-4.222;2022-11-15T14:08:57;3.25;;;1.50;;
44428;SDS011;30134;47.866;-4.222;2022-11-15T14:11:32;3.80;;;1.88;;
44428;SDS011;30134;47.866;-4.222;2022-11-15T14:16:37;4.40;;;1.92;;
44428;SDS011;30134;47.866;-4.222;2022-11-15T14:19:12;3.38;;;1.55;;
44428;SDS011;30134;47.866;-4.222;2022-11-15T14:22:09;4.28;;;1.80;;
44428;SDS011;30134;47.866;-4.222;2022-11-15T14:27:39;3.80;;;1.75;;
44428;SDS011;30134;47.866;-4.222;2022-11-15T14:30:12;5.28;;;2.10;;
44428;SDS011;30134;47.866;-4.222;2022-11-15T14:32:48;4.75;;;1.80;;
44428;SDS011;30134;47.866;-4.222;2022-11-15T14:35:17;4.70;;;1.88;;
44428;SDS011;30134;47.866;-4.222;2022-11-15T14:37:47;3.03;;;1.70;;
44428;SDS011;30134;47.866;-4.222;2022-11-15T14:40:18;4.07;;;1.60;;
44428;SDS011;30134;47.866;-4.222;2022-11-15T14:42:46;4.78;;;1.58;;
44428;SDS011;30134;47.866;-4.222;2022-11-15T14:45:18;3.58;;;1.65;;
44428;SDS011;30134;47.866;-4.222;2022-11-15T14:47:46;3.25;;;1.52;;
44428;SDS011;30134;47.866;-4.222;2022-11-15T14:50:16;2.90;;;1.50;;
44428;SDS011;30134;47.866;-4.222;2022-11-15T14:52:46;4.03;;;1.60;;
44428;SDS011;30134;47.866;-4.222;2022-11-15T14:55:24;4.78;;;1.70;;
44428;SDS011;30134;47.866;-4.222;2022-11-15T14:57:53;4.53;;;1.92;;
44428;SDS011;30134;47.866;-4.222;2022-11-15T15:00:20;7.68;;;2.55;;
44428;SDS011;30134;47.866;-4.222;2022-11-15T15:05:23;12.05;;;3.00;;
44428;SDS011;30134;47.866;-4.222;2022-11-15T15:07:59;10.70;;;3.15;;
44428;SDS011;30134;47.866;-4.222;2022-11-15T15:10:27;11.27;;;3.17;;
44428;SDS011;30134;47.866;-4.222;2022-11-15T15:12:58;9.98;;;3.50;;
44428;SDS011;30134;47.866;-4.222;2022-11-15T15:15:25;8.95;;;3.38;;
44428;SDS011;30134;47.866;-4.222;2022-11-15T15:18:00;7.88;;;3.10;;
44428;SDS011;30134;47.866;-4.222;2022-11-15T15:20:26;7.32;;;2.90;;
44428;SDS011;30134;47.866;-4.222;2022-11-15T15:22:54;9.30;;;2.83;;
44428;SDS011;30134;47.866;-4.222;2022-11-15T15:27:55;10.07;;;3.22;;
44428;SDS011;30134;47.866;-4.222;2022-11-15T15:30:22;7.63;;;2.53;;
44428;SDS011;30134;47.866;-4.222;2022-11-15T15:32:49;10.25;;;3.20;;
44428;SDS011;30134;47.866;-4.222;2022-11-15T15:35:18;5.32;;;2.30;;
44428;SDS011;30134;47.866;-4.222;2022-11-15T15:37:45;9.68;;;3.00;;
44428;SDS011;30134;47.866;-4.222;2022-11-15T15:40:22;6.93;;;2.45;;
44428;SDS011;30134;47.866;-4.222;2022-11-15T15:42:49;8.32;;;2.72;;
44428;SDS011;30134;47.866;-4.222;2022-11-15T15:45:16;12.20;;;2.90;;
44428;SDS011;30134;47.866;-4.222;2022-11-15T15:47:43;8.02;;;2.35;;
44428;SDS011;30134;47.866;-4.222;2022-11-15T15:50:32;7.30;;;2.88;;
44428;SDS011;30134;47.866;-4.222;2022-11-15T15:53:01;8.30;;;2.80;;
44428;SDS011;30134;47.866;-4.222;2022-11-15T15:55:29;5.35;;;2.47;;
44428;SDS011;30134;47.866;-4.222;2022-11-15T15:57:55;5.43;;;2.25;;
44428;SDS011;30134;47.866;-4.222;2022-11-15T16:00:22;6.65;;;2.38;;
44428;SDS011;30134;47.866;-4.222;2022-11-15T16:02:51;7.80;;;2.90;;
44428;SDS011;30134;47.866;-4.222;2022-11-15T16:05:18;8.23;;;2.55;;
44428;SDS011;30134;47.866;-4.222;2022-11-15T16:07:45;9.05;;;2.40;;
44428;SDS011;30134;47.866;-4.222;2022-11-15T16:12:52;6.82;;;2.38;;
44428;SDS011;30134;47.866;-4.222;2022-11-15T16:15:19;7.95;;;2.75;;
44428;SDS011;30134;47.866;-4.222;2022-11-15T16:18:04;9.48;;;2.40;;
44428;SDS011;30134;47.866;-4.222;2022-11-15T16:23:11;7.97;;;2.65;;
44428;SDS011;30134;47.866;-4.222;2022-11-15T16:25:49;8.02;;;2.47;;
44428;SDS011;30134;47.866;-4.222;2022-11-15T16:28:24;8.30;;;2.40;;
44428;SDS011;30134;47.866;-4.222;2022-11-15T16:33:37;8.20;;;2.30;;
44428;SDS011;30134;47.866;-4.222;2022-11-15T16:36:05;8.80;;;2.45;;
44428;SDS011;30134;47.866;-4.222;2022-11-15T16:38:42;9.02;;;2.42;;
44428;SDS011;30134;47.866;-4.222;2022-11-15T16:41:08;6.20;;;2.20;;
44428;SDS011;30134;47.866;-4.222;2022-11-15T16:43:34;8.45;;;2.88;;
44428;SDS011;30134;47.866;-4.222;2022-11-15T16:46:02;8.32;;;2.55;;
44428;SDS011;30134;47.866;-4.222;2022-11-15T16:48:39;6.93;;;2.47;;
44428;SDS011;30134;47.866;-4.222;2022-11-15T16:51:07;7.93;;;2.53;;
44428;SDS011;30134;47.866;-4.222;2022-11-15T16:53:33;9.65;;;2.22;;
44428;SDS011;30134;47.866;-4.222;2022-11-15T16:55:59;6.53;;;2.70;;
44428;SDS011;30134;47.866;-4.222;2022-11-15T16:58:25;10.40;;;2.58;;
44428;SDS011;30134;47.866;-4.222;2022-11-15T17:00:51;7.32;;;2.47;;
44428;SDS011;30134;47.866;-4.222;2022-11-15T17:03:19;9.05;;;2.70;;
44428;SDS011;30134;47.866;-4.222;2022-11-15T17:05:49;6.78;;;2.70;;
44428;SDS011;30134;47.866;-4.222;2022-11-15T17:08:16;6.80;;;2.55;;
44428;SDS011;30134;47.866;-4.222;2022-11-15T17:10:42;6.97;;;2.60;;
44428;SDS011;30134;47.866;-4.222;2022-11-15T17:13:11;7.03;;;2.55;;
44428;SDS011;30134;47.866;-4.222;2022-11-15T17:15:39;9.50;;;2.77;;
44428;SDS011;30134;47.866;-4.222;2022-11-15T17:18:05;9.30;;;2.65;;
44428;SDS011;30134;47.866;-4.222;2022-11-15T17:20:32;8.85;;;3.00;;
44428;SDS011;30134;47.866;-4.222;2022-11-15T17:22:58;5.35;;;2.38;;
44428;SDS011;30134;47.866;-4.222;2022-11-15T17:25:24;6.03;;;2.53;;
44428;SDS011;30134;47.866;-4.222;2022-11-15T17:27:50;8.00;;;2.70;;
44428;SDS011;30134;47.866;-4.222;2022-11-15T17:30:16;7.05;;;2.83;;
44428;SDS011;30134;47.866;-4.222;2022-11-15T17:32:44;8.30;;;2.70;;
44428;SDS011;30134;47.866;-4.222;2022-11-15T17:35:13;8.85;;;2.90;;
44428;SDS011;30134;47.866;-4.222;2022-11-15T17:37:39;8.48;;;2.70;;
44428;SDS011;30134;47.866;-4.222;2022-11-15T17:40:05;6.07;;;2.00;;
44428;SDS011;30134;47.866;-4.222;2022-11-15T17:42:32;8.07;;;2.38;;
44428;SDS011;30134;47.866;-4.222;2022-11-15T17:44:58;7.80;;;2.53;;
44428;SDS011;30134;47.866;-4.222;2022-11-15T17:47:23;11.10;;;2.65;;
44428;SDS011;30134;47.866;-4.222;2022-11-15T17:49:49;11.18;;;2.75;;
44428;SDS011;30134;47.866;-4.222;2022-11-15T17:52:16;6.32;;;2.60;;
44428;SDS011;30134;47.866;-4.222;2022-11-15T17:54:41;7.10;;;2.40;;
44428;SDS011;30134;47.866;-4.222;2022-11-15T17:57:07;5.72;;;1.80;;
44428;SDS011;30134;47.866;-4.222;2022-11-15T17:59:34;6.78;;;2.15;;
44428;SDS011;30134;47.866;-4.222;2022-11-15T18:02:00;4.80;;;2.17;;
44428;SDS011;30134;47.866;-4.222;2022-11-15T18:04:26;4.72;;;2.00;;
44428;SDS011;30134;47.866;-4.222;2022-11-15T18:06:53;6.28;;;2.00;;
44428;SDS011;30134;47.866;-4.222;2022-11-15T18:09:21;5.97;;;2.00;;
44428;SDS011;30134;47.866;-4.222;2022-11-15T18:11:47;7.47;;;2.10;;
44428;SDS011;30134;47.866;-4.222;2022-11-15T18:14:15;6.88;;;2.38;;
44428;SDS011;30134;47.866;-4.222;2022-11-15T18:16:42;6.45;;;2.38;;
44428;SDS011;30134;47.866;-4.222;2022-11-15T18:19:09;6.15;;;2.72;;
44428;SDS011;30134;47.866;-4.222;2022-11-15T18:21:41;7.15;;;2.40;;
44428;SDS011;30134;47.866;-4.222;2022-11-15T18:24:28;4.85;;;2.20;;
44428;SDS011;30134;47.866;-4.222;2022-11-15T18:26:59;4.75;;;2.10;;
44428;SDS011;30134;47.866;-4.222;2022-11-15T18:29:28;5.13;;;2.30;;
44428;SDS011;30134;47.866;-4.222;2022-11-15T18:31:55;3.58;;;2.17;;
44428;SDS011;30134;47.866;-4.222;2022-11-15T18:34:25;7.45;;;2.20;;
44428;SDS011;30134;47.866;-4.222;2022-11-15T18:37:01;5.30;;;2.50;;
44428;SDS011;30134;47.866;-4.222;2022-11-15T18:39:28;7.18;;;2.30;;
44428;SDS011;30134;47.866;-4.222;2022-11-15T18:41:54;5.30;;;2.28;;
44428;SDS011;30134;47.866;-4.222;2022-11-15T18:44:20;4.30;;;2.10;;
44428;SDS011;30134;47.866;-4.222;2022-11-15T18:46:46;5.00;;;2.30;;
44428;SDS011;30134;47.866;-4.222;2022-11-15T18:49:12;4.30;;;1.92;;
44428;SDS011;30134;47.866;-4.222;2022-11-15T18:51:40;4.82;;;2.20;;
44428;SDS011;30134;47.866;-4.222;2022-11-15T18:54:10;4.05;;;2.10;;
44428;SDS011;30134;47.866;-4.222;2022-11-15T18:56:38;3.50;;;2.20;;
44428;SDS011;30134;47.866;-4.222;2022-11-15T18:59:05;3.22;;;1.80;;
44428;SDS011;30134;47.866;-4.222;2022-11-15T19:01:35;4.07;;;1.80;;
44428;SDS011;30134;47.866;-4.222;2022-11-15T19:04:07;3.78;;;1.90;;
44428;SDS011;30134;47.866;-4.222;2022-11-15T19:06:38;4.50;;;1.80;;
44428;SDS011;30134;47.866;-4.222;2022-11-15T19:09:06;2.88;;;1.92;;
44428;SDS011;30134;47.866;-4.222;2022-11-15T19:11:35;4.43;;;1.90;;
44428;SDS011;30134;47.866;-4.222;2022-11-15T19:14:04;4.22;;;1.90;;
44428;SDS011;30134;47.866;-4.222;2022-11-15T19:16:37;3.17;;;1.88;;